Time;durP1;ratioP1;P1;durP2;ratioP2;P2;SDS_P1;SDS_P2;PMS_P1;PMS_P2;Temp;Humidity;BMP_temperature;BMP_pressure;BME280_temperature;BME280_humidity;BME280_pressure;Samples;Min_cycle;Max_cycle;Signal;HPM_P1;HPM_P2
2022/08/18 00:01:21;;;;;;;7.03;3.13;;;;;;;;;;9978737;29;20077;-71
2022/08/18 00:06:18;;;;;;;6.38;3.45;;;;;;;;;;9984957;29;20135;-71
2022/08/18 00:11:15;;;;;;;8.32;3.25;;;;;;;;;;9983745;29;20048;-71
2022/08/18 00:16:11;;;;;;;6.38;4.20;;;;;;;;;;9980345;29;20531;-71
2022/08/18 00:21:07;;;;;;;6.25;4.57;;;;;;;;;;9979949;29;20563;-71
2022/08/18 00:26:04;;;;;;;7.40;3.50;;;;;;;;;;9991339;29;20040;-70
2022/08/18 00:31:00;;;;;;;6.80;4.00;;;;;;;;;;9981911;29;20515;-70
2022/08/18 00:35:56;;;;;;;5.68;4.07;;;;;;;;;;9989372;29;20076;-70
2022/08/18 00:40:54;;;;;;;8.35;5.53;;;;;;;;;;9992979;29;20556;-69
2022/08/18 00:45:50;;;;;;;8.50;4.45;;;;;;;;;;9982103;29;20095;-70
2022/08/18 00:50:57;;;;;;;11.00;5.53;;;;;;;;;;9983864;29;20567;-70
2022/08/18 00:55:55;;;;;;;7.07;5.20;;;;;;;;;;9991585;29;20123;-70
2022/08/18 01:00:51;;;;;;;7.95;5.55;;;;;;;;;;9991833;29;20518;-70
2022/08/18 01:05:52;;;;;;;7.10;5.30;;;;;;;;;;9991125;29;20127;-70
2022/08/18 01:10:49;;;;;;;7.45;4.97;;;;;;;;;;9992636;29;20148;-71
2022/08/18 01:15:46;;;;;;;12.75;6.40;;;;;;;;;;9991261;29;20517;-70
2022/08/18 01:26:08;;;;;;;10.63;6.97;;;;;;;;;;9990976;29;20135;-71
2022/08/18 01:31:05;;;;;;;13.30;6.25;;;;;;;;;;9988552;29;20071;-71
2022/08/18 01:36:09;;;;;;;7.90;6.25;;;;;;;;;;9988909;29;20911;-72
2022/08/18 01:41:06;;;;;;;9.43;7.03;;;;;;;;;;9987650;29;20065;-72
2022/08/18 01:46:23;;;;;;;13.57;7.10;;;;;;;;;;9999526;29;20047;-71
2022/08/18 01:51:20;;;;;;;8.80;6.95;;;;;;;;;;9987829;29;20095;-70
2022/08/18 01:56:35;;;;;;;11.82;8.57;;;;;;;;;;9989978;29;20697;-71
2022/08/18 02:01:36;;;;;;;11.10;8.57;;;;;;;;;;9993425;29;20059;-72
2022/08/18 02:06:43;;;;;;;10.73;8.00;;;;;;;;;;9986051;29;20139;-72
2022/08/18 02:11:43;;;;;;;9.25;8.35;;;;;;;;;;9984337;29;20099;-73
2022/08/18 02:16:39;;;;;;;16.77;8.77;;;;;;;;;;9986911;29;20060;-72
2022/08/18 02:21:35;;;;;;;9.75;7.40;;;;;;;;;;9993084;29;20649;-72
2022/08/18 02:26:32;;;;;;;12.10;8.73;;;;;;;;;;9990713;29;20135;-71
2022/08/18 02:31:28;;;;;;;11.05;8.68;;;;;;;;;;9983002;29;20430;-71
2022/08/18 02:36:25;;;;;;;11.88;9.02;;;;;;;;;;10008253;29;20040;-71
2022/08/18 02:41:21;;;;;;;11.35;8.68;;;;;;;;;;9980747;29;20052;-71
2022/08/18 02:46:18;;;;;;;14.38;10.38;;;;;;;;;;9985258;29;20052;-71
2022/08/18 02:51:15;;;;;;;13.98;10.77;;;;;;;;;;9983287;29;20075;-71
2022/08/18 03:01:38;;;;;;;12.25;10.02;;;;;;;;;;9980230;29;20056;-71
2022/08/18 03:06:35;;;;;;;11.57;9.57;;;;;;;;;;9991760;29;20096;-71
2022/08/18 03:11:31;;;;;;;17.08;10.98;;;;;;;;;;9987045;29;20075;-71
2022/08/18 03:16:31;;;;;;;11.98;9.50;;;;;;;;;;9986106;29;20534;-71
2022/08/18 03:21:30;;;;;;;12.80;10.32;;;;;;;;;;9979342;29;20455;-71
2022/08/18 03:26:28;;;;;;;11.75;10.32;;;;;;;;;;9988170;29;20055;-71
2022/08/18 03:31:26;;;;;;;12.57;9.57;;;;;;;;;;9978278;29;20075;-71
2022/08/18 03:36:24;;;;;;;13.02;10.30;;;;;;;;;;9978059;29;20044;-70
2022/08/18 03:41:22;;;;;;;12.30;10.45;;;;;;;;;;9983610;29;20892;-70
2022/08/18 03:46:39;;;;;;;12.65;11.35;;;;;;;;;;9988797;29;20044;-70
2022/08/18 03:51:36;;;;;;;14.18;11.30;;;;;;;;;;9978089;29;20143;-70
2022/08/18 03:56:34;;;;;;;17.02;10.43;;;;;;;;;;9982648;29;20044;-70
2022/08/18 04:01:31;;;;;;;14.52;10.75;;;;;;;;;;9982121;29;20119;-70
2022/08/18 04:06:33;;;;;;;13.63;11.20;;;;;;;;;;9997625;29;20570;-70
2022/08/18 04:11:31;;;;;;;11.75;9.82;;;;;;;;;;9988022;29;20151;-70
2022/08/18 04:16:33;;;;;;;;;;;;;;;;;;9981830;29;20131;-70
2022/08/18 04:21:32;;;;;;;13.25;10.38;;;;;;;;;;9983394;29;20655;-71
2022/08/18 04:26:28;;;;;;;12.23;10.93;;;;;;;;;;9990197;29;20091;-70
2022/08/18 04:31:25;;;;;;;10.35;9.25;;;;;;;;;;9990623;29;20044;-70
2022/08/18 04:36:21;;;;;;;13.43;9.32;;;;;;;;;;9998020;29;20518;-69
2022/08/18 04:41:19;;;;;;;10.70;9.40;;;;;;;;;;9995515;29;20555;-66
2022/08/18 04:46:15;;;;;;;13.13;10.77;;;;;;;;;;9990853;29;20408;-69
2022/08/18 04:51:13;;;;;;;12.95;10.43;;;;;;;;;;9995146;29;20048;-68
2022/08/18 04:56:32;;;;;;;27.52;11.15;;;;;;;;;;9991408;29;20076;-68
2022/08/18 05:01:30;;;;;;;12.65;10.13;;;;;;;;;;9993411;29;20096;-68
2022/08/18 05:06:27;;;;;;;13.40;9.93;;;;;;;;;;9991656;29;20127;-68
2022/08/18 05:11:24;;;;;;;11.85;9.20;;;;;;;;;;9989553;29;20127;-69
2022/08/18 05:16:20;;;;;;;14.30;10.02;;;;;;;;;;9987503;29;20083;-69
2022/08/18 05:21:24;;;;;;;13.02;10.48;;;;;;;;;;9981894;29;20082;-69
2022/08/18 05:26:21;;;;;;;12.00;10.68;;;;;;;;;;9973790;29;20487;-69
2022/08/18 05:31:18;;;;;;;16.48;12.52;;;;;;;;;;9970350;29;20080;-69
2022/08/18 05:36:23;;;;;;;14.77;11.43;;;;;;;;;;9980931;29;20056;-69
2022/08/18 05:41:36;;;;;;;12.88;10.82;;;;;;;;;;9991619;29;20146;-69
2022/08/18 05:46:37;;;;;;;15.15;10.88;;;;;;;;;;9992504;29;20040;-69
2022/08/18 05:51:38;;;;;;;16.85;10.82;;;;;;;;;;9992498;29;20080;-69
2022/08/18 05:56:45;;;;;;;14.40;10.32;;;;;;;;;;9988438;29;20062;-69
2022/08/18 06:01:44;;;;;;;13.45;10.30;;;;;;;;;;9990381;29;20131;-69
2022/08/18 06:06:41;;;;;;;13.15;10.30;;;;;;;;;;9987574;29;20456;-69
2022/08/18 06:11:43;;;;;;;12.18;10.95;;;;;;;;;;9990673;29;20052;-69
2022/08/18 06:16:55;;;;;;;15.43;11.98;;;;;;;;;;9982968;29;20060;-69
2022/08/18 06:22:06;;;;;;;20.50;14.25;;;;;;;;;;10001404;29;20558;-73
2022/08/18 06:27:09;;;;;;;19.73;12.82;;;;;;;;;;9982261;29;20052;-73
2022/08/18 06:32:14;;;;;;;16.15;12.63;;;;;;;;;;9983340;29;20125;-73
2022/08/18 06:37:16;;;;;;;19.83;13.02;;;;;;;;;;9984488;29;20052;-73
2022/08/18 06:42:13;;;;;;;;;;;;;;;;;;9982035;29;20044;-73
2022/08/18 06:47:09;;;;;;;22.05;13.55;;;;;;;;;;9977252;29;19923;-74
2022/08/18 06:52:22;;;;;;;15.30;12.65;;;;;;;;;;9986074;29;20651;-73
2022/08/18 06:57:44;;;;;;;19.40;12.60;;;;;;;;;;9982778;29;20099;-73
2022/08/18 07:02:48;;;;;;;17.03;13.47;;;;;;;;;;9972877;29;20060;-73
2022/08/18 07:07:45;;;;;;;21.05;15.93;;;;;;;;;;9983351;29;20080;-73
2022/08/18 07:12:42;;;;;;;30.13;22.90;;;;;;;;;;9984547;29;20043;-73
2022/08/18 07:17:38;;;;;;;39.80;25.92;;;;;;;;;;9985603;29;20167;-73
2022/08/18 07:22:52;;;;;;;37.30;26.90;;;;;;;;;;9984945;29;20083;-73
2022/08/18 07:27:49;;;;;;;42.40;27.48;;;;;;;;;;9971404;29;20052;-73
2022/08/18 07:32:49;;;;;;;45.63;28.05;;;;;;;;;;9990680;29;20044;-74
2022/08/18 07:37:57;;;;;;;48.55;31.13;;;;;;;;;;9970718;29;20155;-74
2022/08/18 07:42:56;;;;;;;41.08;26.98;;;;;;;;;;9986002;29;20131;-73
2022/08/18 07:48:18;;;;;;;33.38;23.70;;;;;;;;;;9983423;29;20066;-73
2022/08/18 07:54:00;;;;;;;37.65;23.55;;;;;;;;;;9985885;29;20091;-74
2022/08/18 07:59:17;;;;;;;34.58;21.95;;;;;;;;;;9977360;29;20048;-73
2022/08/18 08:04:32;;;;;;;35.53;22.67;;;;;;;;;;9984680;29;20164;-73
2022/08/18 08:09:40;;;;;;;34.30;25.35;;;;;;;;;;9984352;29;20052;-73
2022/08/18 08:14:39;;;;;;;36.15;25.92;;;;;;;;;;9986974;29;20048;-73
2022/08/18 08:19:54;;;;;;;46.65;30.05;;;;;;;;;;10002864;29;20570;-73
2022/08/18 08:25:09;;;;;;;57.17;33.33;;;;;;;;;;9985303;29;20074;-73
2022/08/18 08:30:27;;;;;;;56.03;32.75;;;;;;;;;;9982818;29;20131;-74
2022/08/18 08:35:31;;;;;;;54.10;30.08;;;;;;;;;;9988995;29;20052;-74
2022/08/18 08:40:51;;;;;;;62.25;31.23;;;;;;;;;;9979576;29;20107;-74
2022/08/18 08:45:54;;;;;;;44.40;28.05;;;;;;;;;;9976035;29;20131;-73
2022/08/18 08:50:50;;;;;;;;;;;;;;;;;;9980149;29;20056;-73
2022/08/18 08:55:48;;;;;;;35.97;21.30;;;;;;;;;;9983168;29;19956;-72
2022/08/18 09:00:46;;;;;;;34.05;21.23;;;;;;;;;;9984567;29;20131;-72
2022/08/18 09:05:52;;;;;;;32.65;19.88;;;;;;;;;;9976764;29;20095;-72
2022/08/18 09:11:27;;;;;;;28.50;20.10;;;;;;;;;;9978620;29;20052;-72
2022/08/18 09:16:42;;;;;;;32.40;21.10;;;;;;;;;;9938864;29;20044;-72
2022/08/18 09:21:44;;;;;;;32.55;21.38;;;;;;;;;;9987029;29;20437;-72
2022/08/18 09:26:47;;;;;;;31.08;21.13;;;;;;;;;;9978408;29;20474;-72
2022/08/18 09:31:45;;;;;;;31.83;21.10;;;;;;;;;;9985941;29;20048;-73
2022/08/18 09:37:10;;;;;;;31.13;21.88;;;;;;;;;;9988955;29;20056;-73
2022/08/18 09:42:10;;;;;;;31.45;21.35;;;;;;;;;;9984817;29;21433;-73
2022/08/18 09:47:07;;;;;;;33.13;22.85;;;;;;;;;;9987126;29;20076;-73
2022/08/18 09:52:30;;;;;;;30.60;21.17;;;;;;;;;;9984959;29;20136;-73
2022/08/18 09:57:29;;;;;;;32.33;22.10;;;;;;;;;;9985761;29;20043;-72
2022/08/18 10:02:36;;;;;;;32.53;21.90;;;;;;;;;;9980443;29;20056;-72
2022/08/18 10:07:35;;;;;;;29.02;22.25;;;;;;;;;;9986715;29;20103;-72
2022/08/18 10:13:00;;;;;;;30.10;20.58;;;;;;;;;;9989123;29;20517;-72
2022/08/18 10:18:00;;;;;;;24.50;19.85;;;;;;;;;;10005634;29;20040;-72
2022/08/18 10:22:56;;;;;;;27.15;21.65;;;;;;;;;;9989390;29;20736;-72
2022/08/18 10:27:55;;;;;;;24.60;20.20;;;;;;;;;;9989343;29;20048;-72
2022/08/18 10:32:51;;;;;;;24.50;18.63;;;;;;;;;;9991231;29;20578;-72
2022/08/18 10:37:50;;;;;;;28.05;18.92;;;;;;;;;;9989744;29;20076;-73
2022/08/18 10:42:52;;;;;;;26.60;19.85;;;;;;;;;;9980534;29;20616;-72
2022/08/18 10:48:15;;;;;;;21.83;19.02;;;;;;;;;;9975857;29;20079;-72
2022/08/18 10:53:48;;;;;;;22.08;17.55;;;;;;;;;;9975250;29;20074;-72
2022/08/18 10:58:49;;;;;;;23.52;18.00;;;;;;;;;;9987345;29;20048;-72
2022/08/18 11:03:51;;;;;;;22.80;17.27;;;;;;;;;;9975867;29;20044;-73
2022/08/18 11:08:53;;;;;;;27.65;18.77;;;;;;;;;;9974438;29;20068;-73
2022/08/18 11:14:05;;;;;;;24.13;17.85;;;;;;;;;;9983369;29;20516;-73
2022/08/18 11:19:13;;;;;;;19.65;16.50;;;;;;;;;;9985395;29;20143;-73
2022/08/18 11:24:19;;;;;;;22.63;18.35;;;;;;;;;;9982697;29;20055;-72
2022/08/18 11:29:21;;;;;;;19.27;15.55;;;;;;;;;;9990785;29;20559;-73
2022/08/18 11:34:21;;;;;;;20.77;16.83;;;;;;;;;;9988998;29;20127;-73
2022/08/18 11:39:18;;;;;;;17.08;15.25;;;;;;;;;;9990403;29;21046;-72
2022/08/18 11:44:30;;;;;;;19.90;15.93;;;;;;;;;;9990884;29;20927;-72
2022/08/18 11:49:31;;;;;;;17.17;13.32;;;;;;;;;;9976058;29;20654;-73
2022/08/18 11:54:34;;;;;;;19.92;13.18;;;;;;;;;;9999665;29;20048;-73
2022/08/18 11:59:31;;;;;;;;;;;;;;;;;;9986345;29;20660;-72
2022/08/18 12:04:51;;;;;;;18.05;14.35;;;;;;;;;;9988086;29;20411;-73
2022/08/18 12:10:07;;;;;;;15.48;13.50;;;;;;;;;;9992809;29;20590;-73
2022/08/18 12:15:15;;;;;;;14.05;12.65;;;;;;;;;;9985795;29;20467;-73
2022/08/18 12:20:20;;;;;;;14.85;13.35;;;;;;;;;;9994676;29;20475;-73
2022/08/18 12:25:18;;;;;;;13.57;12.18;;;;;;;;;;9992115;29;20048;-73
2022/08/18 12:30:20;;;;;;;12.32;11.13;;;;;;;;;;9993961;29;20087;-73
2022/08/18 12:35:18;;;;;;;14.30;11.60;;;;;;;;;;9987666;29;20135;-72
2022/08/18 12:40:17;;;;;;;12.32;10.95;;;;;;;;;;9990022;29;20059;-73
2022/08/18 12:45:14;;;;;;;13.65;12.32;;;;;;;;;;9988308;29;20418;-73
2022/08/18 12:50:11;;;;;;;12.38;11.18;;;;;;;;;;9999686;29;20060;-73
2022/08/18 12:55:08;;;;;;;12.95;11.20;;;;;;;;;;9996942;29;20083;-72
2022/08/18 13:00:18;;;;;;;12.23;11.13;;;;;;;;;;9996363;29;20127;-73
2022/08/18 13:05:15;;;;;;;13.38;11.98;;;;;;;;;;9996856;29;20068;-73
2022/08/18 13:10:11;;;;;;;15.85;14.20;;;;;;;;;;9995334;29;20080;-73
2022/08/18 13:15:27;;;;;;;14.07;11.85;;;;;;;;;;9991694;29;20055;-72
2022/08/18 13:20:25;;;;;;;11.77;10.77;;;;;;;;;;9989637;29;20127;-72
2022/08/18 13:25:21;;;;;;;12.85;11.75;;;;;;;;;;9983619;29;20710;-71
2022/08/18 13:30:34;;;;;;;12.75;11.45;;;;;;;;;;9989363;29;20541;-71
2022/08/18 13:35:31;;;;;;;11.95;10.73;;;;;;;;;;9986197;29;20109;-71
2022/08/18 13:40:39;;;;;;;12.90;11.63;;;;;;;;;;9994225;29;20067;-73
2022/08/18 13:45:43;;;;;;;12.63;11.32;;;;;;;;;;9981600;29;20104;-71
2022/08/18 13:50:39;;;;;;;12.63;11.43;;;;;;;;;;9990890;29;20075;-71
2022/08/18 13:55:37;;;;;;;15.57;13.07;;;;;;;;;;9984961;29;20499;-73
2022/08/18 14:00:33;;;;;;;12.55;11.35;;;;;;;;;;9989378;29;20123;-71
2022/08/18 14:05:31;;;;;;;14.52;11.80;;;;;;;;;;9984760;29;20048;-71
2022/08/18 14:10:48;;;;;;;12.40;11.20;;;;;;;;;;9981876;29;20051;-71
2022/08/18 14:15:45;;;;;;;13.63;11.43;;;;;;;;;;9981568;29;20048;-71
2022/08/18 14:31:22;;;;;;;11.18;10.18;;;;;;;;;;9972666;29;20087;-71
2022/08/18 14:36:19;;;;;;;14.70;13.20;;;;;;;;;;9985605;29;20040;-71
2022/08/18 14:41:25;;;;;;;12.73;11.52;;;;;;;;;;9983879;29;20591;-71
2022/08/18 14:46:22;;;;;;;14.43;12.93;;;;;;;;;;9993693;29;20048;-71
2022/08/18 14:51:27;;;;;;;14.90;13.48;;;;;;;;;;9990884;29;20580;-70
2022/08/18 14:56:24;;;;;;;14.77;13.27;;;;;;;;;;9981757;29;20088;-73
2022/08/18 15:01:24;;;;;;;15.93;14.32;;;;;;;;;;9977188;29;20052;-73
2022/08/18 15:06:22;;;;;;;13.07;11.88;;;;;;;;;;9983056;29;20052;-73
2022/08/18 15:11:23;;;;;;;15.85;14.23;;;;;;;;;;9978247;29;20510;-73
2022/08/18 15:16:21;;;;;;;14.60;12.50;;;;;;;;;;9979746;29;20048;-73
2022/08/18 15:26:41;;;;;;;13.68;12.38;;;;;;;;;;10110770;28;20454;-73
2022/08/18 15:31:38;;;;;;;12.90;11.63;;;;;;;;;;10068139;28;20050;-71
2022/08/18 15:36:55;;;;;;;13.25;11.85;;;;;;;;;;10059280;28;20043;-72
2022/08/18 15:41:52;;;;;;;12.52;11.30;;;;;;;;;;10061030;28;20510;-71
2022/08/18 15:46:50;;;;;;;12.43;11.23;;;;;;;;;;10065302;28;20509;-72
2022/08/18 15:51:48;;;;;;;11.90;10.80;;;;;;;;;;10064069;28;20047;-72
2022/08/18 15:56:47;;;;;;;13.88;12.52;;;;;;;;;;10068798;28;20068;-72
2022/08/18 16:01:53;;;;;;;12.77;11.43;;;;;;;;;;10064147;28;20532;-72
2022/08/18 16:06:50;;;;;;;11.18;9.77;;;;;;;;;;10060707;28;20094;-72
2022/08/18 16:11:48;;;;;;;12.18;10.98;;;;;;;;;;10068369;28;20502;-72
2022/08/18 16:16:44;;;;;;;12.23;11.00;;;;;;;;;;10068178;28;20054;-71
2022/08/18 16:21:40;;;;;;;11.45;10.25;;;;;;;;;;10066223;28;20077;-71
2022/08/18 16:26:37;;;;;;;12.75;11.10;;;;;;;;;;10062753;28;20106;-71
2022/08/18 16:31:33;;;;;;;11.60;10.40;;;;;;;;;;10070263;28;20126;-72
2022/08/18 16:36:29;;;;;;;12.20;10.93;;;;;;;;;;10056382;28;20612;-72
2022/08/18 16:41:27;;;;;;;11.70;9.80;;;;;;;;;;10053855;28;20054;-73
2022/08/18 16:46:25;;;;;;;11.65;10.35;;;;;;;;;;10051154;28;20138;-72
2022/08/18 16:51:22;;;;;;;13.13;10.65;;;;;;;;;;10049518;28;20095;-69
2022/08/18 16:56:20;;;;;;;11.52;9.85;;;;;;;;;;10046836;28;20569;-69
2022/08/18 17:06:44;;;;;;;14.60;12.30;;;;;;;;;;10049736;28;20058;-69
2022/08/18 17:11:43;;;;;;;10.52;9.40;;;;;;;;;;10051448;28;20055;-70
2022/08/18 17:16:47;;;;;;;10.30;9.18;;;;;;;;;;10051732;28;20043;-69
2022/08/18 17:21:44;;;;;;;10.27;9.18;;;;;;;;;;10068183;28;20455;-69
2022/08/18 17:26:47;;;;;;;11.23;8.75;;;;;;;;;;10053343;28;20083;-69
2022/08/18 17:31:47;;;;;;;11.20;9.05;;;;;;;;;;10050518;28;20044;-69
2022/08/18 17:36:47;;;;;;;12.23;9.18;;;;;;;;;;10056565;28;20605;-69
2022/08/18 17:47:03;;;;;;;11.07;8.40;;;;;;;;;;10065713;28;20078;-69
2022/08/18 17:51:59;;;;;;;11.63;8.13;;;;;;;;;;10055022;28;20150;-68
2022/08/18 17:57:05;;;;;;;9.80;8.40;;;;;;;;;;10048637;28;20052;-70
2022/08/18 18:02:11;;;;;;;13.38;8.52;;;;;;;;;;10043585;28;20569;-71
2022/08/18 18:07:35;;;;;;;9.70;6.72;;;;;;;;;;10045800;28;20129;-71
2022/08/18 18:12:34;;;;;;;13.23;8.25;;;;;;;;;;10053133;28;20044;-70
2022/08/18 18:17:36;;;;;;;12.20;8.13;;;;;;;;;;10047175;28;20102;-70
2022/08/18 18:22:32;;;;;;;11.95;7.95;;;;;;;;;;10049994;28;20147;-70
2022/08/18 18:27:29;;;;;;;8.95;7.20;;;;;;;;;;10055013;28;20048;-70
2022/08/18 18:32:50;;;;;;;12.98;8.38;;;;;;;;;;10056149;28;20074;-70
2022/08/18 18:38:01;;;;;;;13.23;8.30;;;;;;;;;;10054226;28;20044;-70
2022/08/18 18:43:15;;;;;;;9.48;6.68;;;;;;;;;;10040167;28;20062;-70
2022/08/18 18:48:17;;;;;;;13.27;8.65;;;;;;;;;;10055627;28;20430;-70
2022/08/18 18:53:39;;;;;;;13.60;7.80;;;;;;;;;;10065067;28;20565;-70
2022/08/18 18:58:52;;;;;;;10.52;7.68;;;;;;;;;;10079366;28;20770;-70
2022/08/18 19:03:55;;;;;;;17.17;7.13;;;;;;;;;;10066732;28;20502;-70
2022/08/18 19:08:54;;;;;;;8.70;5.95;;;;;;;;;;10064260;28;20067;-70
2022/08/18 19:13:59;;;;;;;8.23;5.35;;;;;;;;;;10055074;28;20075;-70
2022/08/18 19:19:17;;;;;;;9.00;5.65;;;;;;;;;;10047465;28;20073;-69
2022/08/18 19:24:37;;;;;;;9.55;5.78;;;;;;;;;;10060437;28;20144;-69
2022/08/18 19:29:36;;;;;;;9.57;5.38;;;;;;;;;;10050654;28;20056;-69
2022/08/18 19:34:36;;;;;;;9.80;6.45;;;;;;;;;;10046341;28;20135;-67
2022/08/18 19:40:09;;;;;;;6.85;5.10;;;;;;;;;;10044601;28;20066;-66
2022/08/18 19:45:11;;;;;;;9.63;6.00;;;;;;;;;;10036949;28;20055;-67
2022/08/18 19:50:12;;;;;;;9.80;5.30;;;;;;;;;;10041034;28;20059;-68
2022/08/18 19:55:13;;;;;;;12.00;6.07;;;;;;;;;;10041027;28;20687;-67
2022/08/18 20:00:38;;;;;;;9.68;5.72;;;;;;;;;;10043954;28;20114;-67
2022/08/18 20:05:57;;;;;;;11.73;5.82;;;;;;;;;;10055308;28;20684;-67
2022/08/18 20:11:16;;;;;;;15.02;6.00;;;;;;;;;;10041783;28;20050;-68
2022/08/18 20:16:22;;;;;;;10.10;4.93;;;;;;;;;;10045672;28;20138;-68
2022/08/18 20:21:21;;;;;;;9.65;4.82;;;;;;;;;;10051850;28;20406;-67
2022/08/18 20:26:40;;;;;;;8.43;5.18;;;;;;;;;;10047792;28;20052;-67
2022/08/18 20:31:43;;;;;;;11.63;5.55;;;;;;;;;;10054661;28;20070;-67
2022/08/18 20:36:41;;;;;;;9.70;5.00;;;;;;;;;;10064209;28;20838;-67
2022/08/18 20:41:41;;;;;;;7.85;5.25;;;;;;;;;;10056430;28;20139;-68
2022/08/18 20:46:45;;;;;;;11.73;5.72;;;;;;;;;;10043922;28;20094;-67
2022/08/18 20:51:52;;;;;;;9.40;5.38;;;;;;;;;;10056404;28;20071;-67
2022/08/18 20:56:52;;;;;;;12.05;7.00;;;;;;;;;;10055687;28;20090;-68
2022/08/18 21:01:52;;;;;;;16.30;6.38;;;;;;;;;;10047355;28;20082;-67
2022/08/18 21:06:49;;;;;;;11.68;5.63;;;;;;;;;;10047703;28;20131;-67
2022/08/18 21:11:46;;;;;;;10.60;5.38;;;;;;;;;;10070542;28;20090;-68
2022/08/18 21:16:46;;;;;;;8.35;4.85;;;;;;;;;;10065676;28;20134;-68
2022/08/18 21:21:45;;;;;;;10.60;4.70;;;;;;;;;;10055550;28;20054;-68
2022/08/18 21:26:44;;;;;;;12.25;5.55;;;;;;;;;;10054319;28;20138;-67
2022/08/18 21:31:42;;;;;;;11.70;6.60;;;;;;;;;;10052634;28;20098;-67
2022/08/18 21:36:48;;;;;;;10.18;4.90;;;;;;;;;;10063146;28;20054;-67
2022/08/18 21:41:47;;;;;;;15.18;5.90;;;;;;;;;;10071629;28;20035;-68
2022/08/18 21:46:44;;;;;;;10.10;5.90;;;;;;;;;;10059230;28;20067;-68
2022/08/18 21:51:45;;;;;;;11.75;5.70;;;;;;;;;;10061272;28;20484;-68
2022/08/18 21:56:42;;;;;;;9.07;5.97;;;;;;;;;;10058884;28;20071;-68
2022/08/18 22:01:52;;;;;;;9.60;5.47;;;;;;;;;;10072662;28;20055;-68
2022/08/18 22:06:50;;;;;;;9.93;5.20;;;;;;;;;;10063151;28;20047;-67
2022/08/18 22:17:21;;;;;;;10.10;5.53;;;;;;;;;;10065996;28;20463;-68
2022/08/18 22:27:33;;;;;;;16.33;6.85;;;;;;;;;;10063688;28;20044;-68
2022/08/18 22:32:31;;;;;;;12.68;6.68;;;;;;;;;;10066741;28;20497;-68
2022/08/18 22:37:31;;;;;;;12.07;6.00;;;;;;;;;;10065806;28;20126;-68
2022/08/18 22:42:30;;;;;;;14.98;9.10;;;;;;;;;;10060467;28;20118;-68
2022/08/18 22:47:28;;;;;;;11.85;8.27;;;;;;;;;;10064671;28;20055;-68
2022/08/18 22:52:26;;;;;;;13.07;7.28;;;;;;;;;;10058234;28;20053;-68
2022/08/18 22:57:25;;;;;;;12.88;7.75;;;;;;;;;;10056684;28;20417;-68
2022/08/18 23:02:22;;;;;;;15.13;8.52;;;;;;;;;;10053958;28;20054;-68
2022/08/18 23:07:21;;;;;;;12.23;8.23;;;;;;;;;;10049694;28;20070;-67
2022/08/18 23:12:18;;;;;;;14.02;9.07;;;;;;;;;;10066277;28;20051;-68
2022/08/18 23:17:14;;;;;;;15.88;9.75;;;;;;;;;;10063931;28;20074;-69
2022/08/18 23:22:11;;;;;;;16.10;9.88;;;;;;;;;;10061420;28;20047;-68
2022/08/18 23:27:08;;;;;;;12.80;8.57;;;;;;;;;;10046632;28;20126;-69
2022/08/18 23:32:05;;;;;;;15.95;9.02;;;;;;;;;;10062250;28;20098;-69
2022/08/18 23:37:02;;;;;;;14.95;8.90;;;;;;;;;;10049768;28;20058;-68
2022/08/18 23:41:59;;;;;;;15.45;8.32;;;;;;;;;;10055495;28;20138;-68
2022/08/18 23:46:56;;;;;;;14.82;8.93;;;;;;;;;;10069141;28;20055;-68
2022/08/18 23:51:54;;;;;;;14.52;9.50;;;;;;;;;;10064566;28;20043;-68
2022/08/18 23:56:51;;;;;;;12.77;9.38;;;;;;;;;;10055852;28;20051;-68
